createdAt,value
2022-11-08T00:00:38.878Z,99788.34
2022-11-08T00:01:44.978Z,99801.16
2022-11-08T00:02:46.938Z,99785.94
2022-11-08T00:03:48.746Z,99813.53
2022-11-08T00:04:50.556Z,99790.00
2022-11-08T00:06:13.806Z,99800.66
2022-11-08T00:07:34.685Z,99790.03
2022-11-08T00:08:55.068Z,99789.34
2022-11-08T00:10:15.390Z,99794.69
2022-11-08T00:11:35.624Z,99796.66
2022-11-08T00:12:56.704Z,99773.53
2022-11-08T00:13:59.855Z,99790.00
2022-11-08T00:15:02.710Z,99784.50
2022-11-08T00:16:04.991Z,99787.47
2022-11-08T00:17:06.996Z,99801.78
2022-11-08T00:18:08.602Z,99790.66
2022-11-08T00:19:11.570Z,99797.59
2022-11-08T00:20:13.209Z,99781.66
2022-11-08T00:21:15.257Z,99790.81
2022-11-08T00:22:17.603Z,99783.16
2022-11-08T00:23:20.296Z,99777.31
2022-11-08T00:24:21.857Z,99794.81
2022-11-08T00:25:24.004Z,99782.69
2022-11-08T00:26:25.568Z,99777.72
2022-11-08T00:27:28.031Z,99783.22
2022-11-08T00:28:29.656Z,99784.44
2022-11-08T00:29:31.305Z,99779.97
2022-11-08T00:30:32.932Z,99772.59
2022-11-08T00:31:35.898Z,99760.56
2022-11-08T00:32:39.526Z,99770.63
2022-11-08T00:33:41.594Z,99788.81
2022-11-08T00:34:43.740Z,99783.81
2022-11-08T00:35:45.550Z,99771.69
2022-11-08T00:36:47.308Z,99764.47
2022-11-08T00:37:49.142Z,99765.38
2022-11-08T00:38:54.090Z,99758.44
2022-11-08T00:39:55.927Z,99766.38
2022-11-08T00:40:57.604Z,99766.44
2022-11-08T00:41:59.234Z,99760.56
2022-11-08T00:43:00.895Z,99761.53
2022-11-08T00:44:02.547Z,99757.28
2022-11-08T00:45:04.603Z,99735.44
2022-11-08T00:46:06.434Z,99754.88
2022-11-08T00:47:08.195Z,99759.34
2022-11-08T00:48:10.030Z,99747.03
2022-11-08T00:49:12.338Z,99743.84
2022-11-08T00:50:14.053Z,99735.13
2022-11-08T00:51:15.723Z,99753.38
2022-11-08T00:52:17.338Z,99755.09
2022-11-08T00:53:18.929Z,99744.34
2022-11-08T00:54:21.455Z,99754.13
2022-11-08T00:55:23.168Z,99745.31
2022-11-08T00:56:25.322Z,99764.41
2022-11-08T00:57:47.209Z,99758.38
2022-11-08T00:58:52.065Z,99739.28
2022-11-08T00:59:53.671Z,99759.81
2022-11-08T01:00:56.416Z,99748.06
2022-11-08T01:01:58.229Z,99740.53
2022-11-08T01:03:18.529Z,99746.66
2022-11-08T01:04:20.793Z,99763.00
2022-11-08T01:05:22.554Z,99751.06
2022-11-08T01:06:26.098Z,99759.69
2022-11-08T01:07:28.036Z,99744.91
2022-11-08T01:08:31.170Z,99750.91
2022-11-08T01:09:32.822Z,99745.78
2022-11-08T01:10:36.360Z,99747.59
2022-11-08T01:11:39.060Z,99733.16
2022-11-08T01:12:40.843Z,99743.63
2022-11-08T01:13:42.940Z,99749.75
2022-11-08T01:14:46.131Z,99699.50
2022-11-08T01:15:47.754Z,99735.31
2022-11-08T01:16:49.647Z,99742.22
2022-11-08T01:17:51.261Z,99722.13
2022-11-08T01:18:55.177Z,99741.00
2022-11-08T01:19:56.917Z,99748.53
2022-11-08T01:20:58.876Z,99755.63
2022-11-08T01:22:01.051Z,99741.06
2022-11-08T01:23:03.805Z,99733.25
2022-11-08T01:24:06.470Z,99743.69
2022-11-08T01:25:08.585Z,99746.03
2022-11-08T01:26:14.656Z,99734.03
2022-11-08T01:27:17.853Z,99735.03
2022-11-08T01:28:19.791Z,99738.47
2022-11-08T01:29:21.976Z,99720.19
2022-11-08T01:30:23.594Z,99731.06
2022-11-08T01:31:28.040Z,99726.66
2022-11-08T01:32:31.102Z,99723.13
2022-11-08T01:33:33.898Z,99705.13
2022-11-08T01:34:36.003Z,99717.81
2022-11-08T01:35:37.859Z,99715.97
2022-11-08T01:36:41.878Z,99723.63
2022-11-08T01:37:45.623Z,99698.66
2022-11-08T01:38:48.139Z,99694.28
2022-11-08T01:39:49.849Z,99713.66
2022-11-08T01:40:52.463Z,99716.81
2022-11-08T01:41:54.827Z,99717.97
2022-11-08T01:42:57.366Z,99700.44
2022-11-08T01:44:00.557Z,99703.72
2022-11-08T01:45:04.368Z,99691.63
2022-11-08T01:46:31.182Z,99699.66
2022-11-08T01:47:32.923Z,99697.09
2022-11-08T01:48:34.783Z,99697.97
2022-11-08T01:49:43.911Z,99691.81
2022-11-08T01:50:45.864Z,99691.97
2022-11-08T01:51:55.994Z,99689.78
2022-11-08T01:52:58.980Z,99694.16
2022-11-08T01:54:05.648Z,99688.94
2022-11-08T01:55:10.549Z,99670.53
2022-11-08T01:56:16.142Z,99685.97
2022-11-08T01:57:29.209Z,99673.03
2022-11-08T01:58:38.060Z,99671.94
2022-11-08T01:59:42.747Z,99657.44
2022-11-08T02:01:03.544Z,99677.09
2022-11-08T02:02:11.290Z,99668.44
2022-11-08T02:03:34.578Z,99663.13
2022-11-08T02:04:38.634Z,99667.56
2022-11-08T02:05:44.352Z,99663.75
2022-11-08T02:06:46.606Z,99672.59
2022-11-08T02:07:50.483Z,99677.06
2022-11-08T02:08:52.780Z,99673.78
2022-11-08T02:09:56.704Z,99654.41
2022-11-08T02:10:58.889Z,99664.16
2022-11-08T02:12:00.849Z,99645.69
2022-11-08T02:13:05.146Z,99665.44
2022-11-08T02:14:08.519Z,99655.38
2022-11-08T02:15:11.906Z,99669.34
2022-11-08T02:16:16.747Z,99663.47
2022-11-08T02:17:18.911Z,99660.94
2022-11-08T02:18:24.478Z,99646.13
2022-11-08T02:19:46.578Z,99658.56
2022-11-08T02:21:03.039Z,99652.97
2022-11-08T02:22:10.653Z,99649.47
2022-11-08T02:23:22.140Z,99646.63
2022-11-08T02:24:24.373Z,99635.25
2022-11-08T02:25:28.803Z,99634.63
2022-11-08T02:26:36.079Z,99652.16
2022-11-08T02:27:37.597Z,99645.53
2022-11-08T02:28:42.056Z,99633.34
2022-11-08T02:29:45.206Z,99631.06
2022-11-08T02:30:47.258Z,99643.25
2022-11-08T02:31:50.408Z,99646.06
2022-11-08T02:32:52.266Z,99643.66
2022-11-08T02:33:54.037Z,99621.31
2022-11-08T02:34:59.279Z,99646.72
2022-11-08T02:36:02.123Z,99625.50
2022-11-08T02:37:06.059Z,99637.59
2022-11-08T02:38:08.758Z,99627.53
2022-11-08T02:39:11.041Z,99630.16
2022-11-08T02:40:12.885Z,99629.50
2022-11-08T02:41:15.228Z,99621.75
2022-11-08T02:42:18.845Z,99623.28
2022-11-08T02:43:21.692Z,99637.59
2022-11-08T02:44:23.197Z,99622.84
2022-11-08T02:45:24.879Z,99637.59
2022-11-08T02:46:26.612Z,99643.50
2022-11-08T02:47:29.810Z,99623.63
2022-11-08T02:48:31.625Z,99638.69
2022-11-08T02:49:33.439Z,99640.94
2022-11-08T02:50:36.012Z,99633.38
2022-11-08T02:51:37.747Z,99628.44
2022-11-08T02:52:39.529Z,99638.25
2022-11-08T02:53:41.587Z,99630.19
2022-11-08T02:54:43.143Z,99644.28
2022-11-08T02:55:46.411Z,99636.44
2022-11-08T02:56:48.121Z,99645.34
2022-11-08T02:57:50.196Z,99640.25
2022-11-08T02:58:52.389Z,99635.94
2022-11-08T02:59:55.561Z,99632.56
2022-11-08T03:00:57.413Z,99640.06
2022-11-08T03:02:00.155Z,99631.91
2022-11-08T03:03:02.642Z,99640.63
2022-11-08T03:04:05.189Z,99655.13
2022-11-08T03:05:07.219Z,99642.94
2022-11-08T03:06:09.212Z,99659.50
2022-11-08T03:07:11.229Z,99664.19
2022-11-08T03:08:13.578Z,99651.53
2022-11-08T03:09:15.143Z,99658.78
2022-11-08T03:10:18.414Z,99652.72
2022-11-08T03:11:20.273Z,99655.69
2022-11-08T03:12:22.249Z,99656.81
2022-11-08T03:13:23.823Z,99660.19
2022-11-08T03:14:25.919Z,99656.66
2022-11-08T03:15:29.529Z,99670.50
2022-11-08T03:16:32.520Z,99659.88
2022-11-08T03:17:34.652Z,99656.91
2022-11-08T03:18:36.726Z,99662.94
2022-11-08T03:19:39.015Z,99648.25
2022-11-08T03:20:40.925Z,99659.94
2022-11-08T03:21:43.046Z,99651.81
2022-11-08T03:22:46.261Z,99656.56
2022-11-08T03:23:48.005Z,99658.34
2022-11-08T03:24:49.674Z,99642.03
2022-11-08T03:25:51.299Z,99656.03
2022-11-08T03:26:53.601Z,99643.66
2022-11-08T03:27:55.555Z,99655.38
2022-11-08T03:28:57.353Z,99651.72
2022-11-08T03:29:59.010Z,99646.06
2022-11-08T03:31:00.958Z,99661.03
2022-11-08T03:32:02.604Z,99646.19
2022-11-08T03:33:04.437Z,99654.31
2022-11-08T03:34:06.064Z,99656.34
2022-11-08T03:35:08.805Z,99654.00
2022-11-08T03:36:12.944Z,99660.53
2022-11-08T03:37:14.716Z,99639.97
2022-11-08T03:38:17.406Z,99670.13
2022-11-08T03:39:19.209Z,99659.84
2022-11-08T03:40:22.101Z,99658.28
2022-11-08T03:41:23.892Z,99645.03
2022-11-08T03:42:25.504Z,99653.81
2022-11-08T03:43:27.447Z,99649.78
2022-11-08T03:44:30.410Z,99652.63
2022-11-08T03:45:33.707Z,99600.16
2022-11-08T03:46:38.099Z,99638.19
2022-11-08T03:47:40.921Z,99640.63
2022-11-08T03:48:42.752Z,99639.03
2022-11-08T03:49:45.527Z,99633.91
2022-11-08T03:50:47.425Z,99627.50
2022-11-08T03:51:48.960Z,99646.50
2022-11-08T03:52:52.933Z,99652.50
2022-11-08T03:53:55.987Z,99648.38
2022-11-08T03:54:57.842Z,99651.78
2022-11-08T03:56:00.957Z,99652.09
2022-11-08T03:57:02.987Z,99657.19
2022-11-08T03:58:04.511Z,99648.69
2022-11-08T03:59:06.143Z,99653.09
2022-11-08T04:00:10.291Z,99655.84
2022-11-08T04:01:12.070Z,99638.84
2022-11-08T04:02:13.912Z,99650.91
2022-11-08T04:03:15.682Z,99640.53
2022-11-08T04:04:17.361Z,99644.91
2022-11-08T04:05:19.232Z,99639.09
2022-11-08T04:06:20.870Z,99646.03
2022-11-08T04:07:23.015Z,99640.94
2022-11-08T04:08:24.715Z,99651.47
2022-11-08T04:09:29.105Z,99633.44
2022-11-08T04:10:30.963Z,99635.19
2022-11-08T04:11:51.677Z,99625.25
2022-11-08T04:13:12.193Z,99637.13
2022-11-08T04:14:32.421Z,99628.81
2022-11-08T04:15:34.041Z,99632.31
2022-11-08T04:16:35.743Z,99627.34
2022-11-08T04:17:55.635Z,99633.38
2022-11-08T04:19:15.999Z,99625.81
2022-11-08T04:20:36.391Z,99631.81
2022-11-08T04:21:38.613Z,99615.63
2022-11-08T04:22:40.108Z,99627.81
2022-11-08T04:23:42.129Z,99619.28
2022-11-08T04:24:44.787Z,99640.84
2022-11-08T04:25:54.081Z,99628.75
2022-11-08T04:26:55.812Z,99626.00
2022-11-08T04:27:57.646Z,99611.47
2022-11-08T04:29:01.627Z,99614.81
2022-11-08T04:30:03.726Z,99607.25
2022-11-08T04:31:18.253Z,99615.91
2022-11-08T04:32:19.799Z,99618.34
2022-11-08T04:33:21.652Z,99620.16
2022-11-08T04:34:23.404Z,99609.22
2022-11-08T04:35:25.961Z,99608.38
2022-11-08T04:36:27.513Z,99628.94
2022-11-08T04:37:29.376Z,99619.22
2022-11-08T04:38:32.307Z,99619.88
2022-11-08T04:39:34.077Z,99607.09
2022-11-08T04:40:36.076Z,99623.41
2022-11-08T04:41:44.046Z,99598.69
2022-11-08T04:42:45.766Z,99646.13
2022-11-08T04:43:48.202Z,99599.00
2022-11-08T04:44:50.278Z,99615.94
2022-11-08T04:45:52.232Z,99611.59
2022-11-08T04:46:54.368Z,99629.72
2022-11-08T04:47:59.254Z,99592.91
2022-11-08T04:49:04.085Z,99552.84
2022-11-08T04:50:06.405Z,99563.88
2022-11-08T04:51:14.341Z,99605.38
2022-11-08T04:52:16.223Z,99605.38
2022-11-08T04:53:18.145Z,99571.97
2022-11-08T04:54:20.375Z,99602.59
2022-11-08T04:55:24.264Z,99526.81
2022-11-08T04:56:28.141Z,99574.41
2022-11-08T04:57:29.832Z,99595.72
2022-11-08T04:58:42.115Z,99599.88
2022-11-08T04:59:44.750Z,99594.63
2022-11-08T05:00:48.746Z,99590.59
2022-11-08T05:01:51.319Z,99580.72
2022-11-08T05:02:53.816Z,99601.34
2022-11-08T05:03:55.712Z,99592.78
2022-11-08T05:05:00.191Z,99593.44
2022-11-08T05:06:11.715Z,99591.69
2022-11-08T05:07:15.047Z,99601.44
2022-11-08T05:08:17.249Z,99556.09
2022-11-08T05:09:20.366Z,99606.56
2022-11-08T05:10:22.155Z,99593.56
2022-11-08T05:11:31.754Z,99531.31
2022-11-08T05:12:33.330Z,99569.94
2022-11-08T05:13:38.266Z,99604.75
2022-11-08T05:14:39.765Z,99593.44
2022-11-08T05:15:41.395Z,99608.78
2022-11-08T05:16:46.083Z,99602.63
2022-11-08T05:17:48.202Z,99566.88
2022-11-08T05:18:50.652Z,99597.53
2022-11-08T05:20:11.914Z,99587.31
2022-11-08T05:21:36.170Z,99597.63
2022-11-08T05:22:56.947Z,99544.91
2022-11-08T05:24:00.363Z,99587.59
2022-11-08T05:25:03.876Z,99597.00
2022-11-08T05:26:06.464Z,99600.63
2022-11-08T05:27:09.918Z,99604.22
2022-11-08T05:28:11.572Z,99616.88
2022-11-08T05:29:15.346Z,99558.16
2022-11-08T05:30:17.168Z,99589.31
2022-11-08T05:31:19.321Z,99564.34
2022-11-08T05:32:20.978Z,99606.56
2022-11-08T05:33:24.558Z,99589.97
2022-11-08T05:34:27.433Z,99586.50
2022-11-08T05:35:29.367Z,99560.94
2022-11-08T05:36:30.871Z,99582.63
2022-11-08T05:37:32.979Z,99578.00
2022-11-08T05:38:35.061Z,99529.63
2022-11-08T05:39:37.167Z,99564.47
2022-11-08T05:40:38.893Z,99583.31
2022-11-08T05:41:40.971Z,99565.19
2022-11-08T05:42:44.277Z,99507.38
2022-11-08T05:43:47.938Z,99565.19
2022-11-08T05:44:50.824Z,99562.56
2022-11-08T05:45:52.591Z,99545.38
2022-11-08T05:46:55.329Z,99552.28
2022-11-08T05:47:58.552Z,99549.69
2022-11-08T05:49:01.399Z,99565.06
2022-11-08T05:50:06.618Z,99506.53
2022-11-08T05:51:08.519Z,99556.00
2022-11-08T05:52:10.489Z,99504.59
2022-11-08T05:53:12.540Z,99565.84
2022-11-08T05:54:14.672Z,99546.25
2022-11-08T05:55:17.595Z,99523.22
2022-11-08T05:56:19.393Z,99535.56
2022-11-08T05:57:22.535Z,99566.28
2022-11-08T05:58:24.173Z,99528.72
2022-11-08T05:59:38.446Z,99503.53
2022-11-08T06:00:41.331Z,99543.53
2022-11-08T06:01:44.286Z,99538.06
2022-11-08T06:02:46.321Z,99539.41
2022-11-08T06:03:49.517Z,99513.56
2022-11-08T06:04:52.555Z,99516.25
2022-11-08T06:05:54.903Z,99539.25
2022-11-08T06:06:56.587Z,99484.28
2022-11-08T06:07:59.025Z,99444.41
2022-11-08T06:09:00.707Z,99518.66
2022-11-08T06:10:04.117Z,99533.16
2022-11-08T06:11:08.255Z,99539.88
2022-11-08T06:12:10.035Z,99516.81
2022-11-08T06:13:16.462Z,99543.44
2022-11-08T06:14:19.327Z,99545.03
2022-11-08T06:15:21.546Z,99483.63
2022-11-08T06:16:25.699Z,99532.97
2022-11-08T06:17:30.266Z,99494.78
2022-11-08T06:18:36.260Z,99512.31
2022-11-08T06:19:38.005Z,99539.75
2022-11-08T06:20:41.247Z,99538.69
2022-11-08T06:21:43.240Z,99534.34
2022-11-08T06:22:44.913Z,99538.56
2022-11-08T06:23:47.285Z,99509.69
2022-11-08T06:24:49.463Z,99541.38
2022-11-08T06:25:51.338Z,99547.88
2022-11-08T06:26:54.240Z,99536.56
2022-11-08T06:27:56.186Z,99524.53
2022-11-08T06:28:57.858Z,99480.44
2022-11-08T06:29:59.705Z,99524.59
2022-11-08T06:31:02.778Z,99537.53
2022-11-08T06:32:04.747Z,99556.19
2022-11-08T06:33:06.799Z,99549.84
2022-11-08T06:34:09.202Z,99549.19
2022-11-08T06:35:11.954Z,99556.75
2022-11-08T06:36:14.022Z,99568.72
2022-11-08T06:37:16.494Z,99524.38
2022-11-08T06:38:18.584Z,99550.50
2022-11-08T06:39:20.525Z,99527.28
2022-11-08T06:40:22.614Z,99556.31
2022-11-08T06:41:27.465Z,99561.91
2022-11-08T06:42:29.714Z,99572.22
2022-11-08T06:43:32.313Z,99565.69
2022-11-08T06:44:34.397Z,99527.00
2022-11-08T06:45:38.630Z,99573.09
2022-11-08T06:46:40.569Z,99585.63
2022-11-08T06:47:42.264Z,99555.06
2022-11-08T06:48:44.254Z,99564.31
2022-11-08T06:49:48.046Z,99568.03
2022-11-08T06:50:51.102Z,99607.22
2022-11-08T06:51:53.202Z,99563.34
2022-11-08T06:52:59.829Z,99578.84
2022-11-08T06:54:06.823Z,99584.38
2022-11-08T06:55:10.416Z,99569.22
2022-11-08T06:56:12.778Z,99530.31
2022-11-08T06:57:14.682Z,99576.50
2022-11-08T06:58:16.381Z,99566.13
2022-11-08T06:59:18.334Z,99560.00
2022-11-08T07:00:20.519Z,99563.22
2022-11-08T07:01:22.229Z,99559.09
2022-11-08T07:02:25.825Z,99573.41
2022-11-08T07:03:27.546Z,99524.53
2022-11-08T07:04:29.874Z,99535.09
2022-11-08T07:05:34.479Z,99553.16
2022-11-08T07:06:36.656Z,99512.47
2022-11-08T07:07:38.744Z,99515.50
2022-11-08T07:08:40.844Z,99529.38
2022-11-08T07:09:44.162Z,99542.56
2022-11-08T07:10:46.363Z,99555.97
2022-11-08T07:11:48.321Z,99585.16
2022-11-08T07:12:59.314Z,99560.50
2022-11-08T07:14:01.049Z,99530.78
2022-11-08T07:15:03.900Z,99570.50
2022-11-08T07:16:06.866Z,99545.56
2022-11-08T07:17:10.644Z,99541.78
2022-11-08T07:18:15.039Z,99557.59
2022-11-08T07:19:17.057Z,99513.19
2022-11-08T07:20:22.288Z,99511.50
2022-11-08T07:21:24.089Z,99544.53
2022-11-08T07:22:26.156Z,99529.50
2022-11-08T07:23:29.058Z,99540.31
2022-11-08T07:24:30.629Z,99558.88
2022-11-08T07:25:33.375Z,99549.16
2022-11-08T07:26:35.068Z,99540.53
2022-11-08T07:27:38.141Z,99525.31
2022-11-08T07:28:40.305Z,99507.97
2022-11-08T07:29:42.220Z,99555.97
2022-11-08T07:30:47.459Z,99490.72
2022-11-08T07:31:49.216Z,99488.78
2022-11-08T07:32:51.491Z,99499.50
2022-11-08T07:33:53.224Z,99549.34
2022-11-08T07:34:54.866Z,99550.84
2022-11-08T07:35:58.076Z,99540.69
2022-11-08T07:36:59.967Z,99527.06
2022-11-08T07:38:03.066Z,99518.84
2022-11-08T07:39:06.829Z,99557.28
2022-11-08T07:40:10.273Z,99548.03
2022-11-08T07:41:11.947Z,99536.53
2022-11-08T07:42:13.515Z,99566.84
2022-11-08T07:43:16.576Z,99579.19
2022-11-08T07:44:19.278Z,99546.59
2022-11-08T07:45:22.081Z,99554.22
2022-11-08T07:46:23.765Z,99567.81
2022-11-08T07:47:25.555Z,99569.56
2022-11-08T07:48:29.117Z,99565.00
2022-11-08T07:49:31.879Z,99502.34
2022-11-08T07:50:33.969Z,99550.00
2022-11-08T07:51:36.796Z,99569.31
2022-11-08T07:52:38.503Z,99567.59
2022-11-08T07:53:40.206Z,99528.53
2022-11-08T07:54:42.137Z,99603.88
2022-11-08T07:55:46.145Z,99578.78
2022-11-08T07:56:47.889Z,99569.56
2022-11-08T07:57:50.100Z,99576.22
2022-11-08T07:58:53.281Z,99551.81
2022-11-08T07:59:55.026Z,99563.00
2022-11-08T08:01:02.429Z,99582.59
2022-11-08T08:02:05.393Z,99576.09
2022-11-08T08:03:11.942Z,99574.75
2022-11-08T08:04:16.411Z,99504.44
2022-11-08T08:05:22.204Z,99584.44
2022-11-08T08:06:24.501Z,99578.00
2022-11-08T08:07:26.105Z,99523.16
2022-11-08T08:08:28.357Z,99562.94
2022-11-08T08:09:31.408Z,99565.25
2022-11-08T08:10:34.855Z,99578.53
2022-11-08T08:11:36.646Z,99600.47
2022-11-08T08:12:38.655Z,99556.94
2022-11-08T08:13:48.836Z,99522.81
2022-11-08T08:14:51.140Z,99553.34
2022-11-08T08:15:54.013Z,99564.69
2022-11-08T08:16:57.713Z,99591.47
2022-11-08T08:18:01.739Z,99574.50
2022-11-08T08:19:04.081Z,99611.41
2022-11-08T08:20:07.403Z,99598.19
2022-11-08T08:21:09.443Z,99617.53
2022-11-08T08:22:12.113Z,99589.50
2022-11-08T08:23:15.315Z,99570.03
2022-11-08T08:24:17.457Z,99599.22
2022-11-08T08:25:21.231Z,99606.81
2022-11-08T08:26:24.489Z,99567.50
2022-11-08T08:27:26.483Z,99566.88
2022-11-08T08:28:28.045Z,99604.97
2022-11-08T08:29:31.033Z,99615.84
2022-11-08T08:30:34.548Z,99564.00
2022-11-08T08:31:36.504Z,99624.28
2022-11-08T08:32:38.891Z,99615.84
2022-11-08T08:33:41.617Z,99602.75
2022-11-08T08:34:43.979Z,99583.63
2022-11-08T08:35:46.729Z,99621.63
2022-11-08T08:36:48.446Z,99608.28
2022-11-08T08:37:50.577Z,99590.66
2022-11-08T08:38:52.389Z,99626.03
2022-11-08T08:39:54.006Z,99607.94
2022-11-08T08:40:56.523Z,99620.00
2022-11-08T08:42:00.523Z,99611.81
2022-11-08T08:43:07.049Z,99607.41
2022-11-08T08:44:14.404Z,99559.06
2022-11-08T08:45:18.339Z,99593.16
2022-11-08T08:46:22.304Z,99623.50
2022-11-08T08:47:25.001Z,99578.72
2022-11-08T08:48:27.079Z,99607.47
2022-11-08T08:49:28.817Z,99591.00
2022-11-08T08:50:32.398Z,99623.59
2022-11-08T08:51:35.546Z,99600.72
2022-11-08T08:52:37.162Z,99630.22
2022-11-08T08:53:40.600Z,99591.59
2022-11-08T08:54:44.370Z,99591.03
2022-11-08T08:55:48.060Z,99589.03
2022-11-08T08:56:50.048Z,99610.97
2022-11-08T08:57:52.003Z,99600.56
2022-11-08T09:01:42.054Z,99630.44
2022-11-08T09:02:44.671Z,99640.28
2022-11-08T09:03:46.376Z,99627.56
2022-11-08T09:04:48.114Z,99621.13
2022-11-08T09:05:49.942Z,99599.06
2022-11-08T09:06:51.637Z,99615.72
2022-11-08T09:07:56.391Z,99624.38
2022-11-08T09:08:58.187Z,99630.00
2022-11-08T09:10:01.450Z,99632.00
2022-11-08T09:11:03.284Z,99593.97
2022-11-08T09:12:11.692Z,99633.53
2022-11-08T09:13:16.441Z,99619.31
2022-11-08T09:14:18.383Z,99618.66
2022-11-08T09:15:21.417Z,99615.56
2022-11-08T09:16:23.008Z,99604.25
2022-11-08T09:17:26.456Z,99597.63
2022-11-08T09:18:28.413Z,99581.00
2022-11-08T09:19:30.246Z,99600.00
2022-11-08T09:20:32.096Z,99609.13
2022-11-08T09:21:34.275Z,99594.09
2022-11-08T09:22:35.808Z,99616.69
2022-11-08T09:23:38.214Z,99604.13
2022-11-08T09:24:41.599Z,99615.44
2022-11-08T09:25:43.178Z,99614.91
2022-11-08T09:26:45.002Z,99631.97
2022-11-08T09:27:47.604Z,99619.16
2022-11-08T09:28:49.471Z,99618.16
2022-11-08T09:29:51.198Z,99618.16
2022-11-08T09:30:54.391Z,99614.81
2022-11-08T09:31:56.093Z,99600.00
2022-11-08T09:33:01.202Z,99562.47
2022-11-08T09:35:10.979Z,99615.31
2022-11-08T09:36:14.071Z,99633.13
2022-11-08T09:37:17.115Z,99586.75
2022-11-08T09:38:19.182Z,99592.41
2022-11-08T09:39:21.110Z,99579.16
2022-11-08T09:40:49.099Z,99604.53
2022-11-08T09:42:26.906Z,99603.41
2022-11-08T09:43:52.987Z,99600.69
2022-11-08T09:45:01.065Z,99591.50
2022-11-08T09:46:03.210Z,99576.78
2022-11-08T09:47:15.807Z,99567.25
2022-11-08T09:48:22.715Z,99579.84
2022-11-08T09:49:39.006Z,99574.56
2022-11-08T09:50:45.680Z,99567.00
2022-11-08T09:51:48.926Z,99591.09
2022-11-08T09:53:09.880Z,99595.19
2022-11-08T09:54:24.224Z,99591.41
2022-11-08T09:55:33.961Z,99595.00
2022-11-08T09:56:38.245Z,99593.06
2022-11-08T09:57:58.566Z,99585.50
2022-11-08T09:59:15.519Z,99592.78
2022-11-08T10:00:20.733Z,99587.53
2022-11-08T10:01:27.211Z,99586.25
2022-11-08T10:02:33.710Z,99594.59
2022-11-08T10:03:36.948Z,99588.09
2022-11-08T10:04:38.912Z,99594.88
2022-11-08T10:05:43.904Z,99596.06
2022-11-08T10:07:10.647Z,99593.72
2022-11-08T10:08:43.177Z,99585.50
2022-11-08T10:09:53.932Z,99582.78
2022-11-08T10:11:01.957Z,99585.84
2022-11-08T10:12:25.363Z,99587.25
2022-11-08T10:13:36.706Z,99580.41
2022-11-08T10:14:54.621Z,99584.06
2022-11-08T10:16:27.833Z,99571.41
2022-11-08T10:17:40.992Z,99570.28
2022-11-08T10:19:06.156Z,99576.16
2022-11-08T10:20:20.847Z,99568.19
2022-11-08T10:21:47.710Z,99579.56
2022-11-08T10:22:59.698Z,99571.41
2022-11-08T10:24:15.143Z,99560.06
2022-11-08T10:25:36.786Z,99558.53
2022-11-08T10:26:43.081Z,99572.41
2022-11-08T10:27:44.711Z,99550.13
2022-11-08T10:28:55.242Z,99563.56
2022-11-08T10:30:04.689Z,99560.91
2022-11-08T10:31:06.973Z,99558.13
2022-11-08T10:32:14.929Z,99564.34
2022-11-08T10:33:27.617Z,99560.50
2022-11-08T10:34:39.103Z,99542.25
2022-11-08T10:35:57.753Z,99566.56
2022-11-08T10:37:09.339Z,99569.97
2022-11-08T10:38:25.211Z,99558.06
2022-11-08T10:39:37.234Z,99559.00
2022-11-08T10:40:50.236Z,99530.22
2022-11-08T10:41:54.421Z,99545.41
2022-11-08T10:43:05.500Z,99518.19
2022-11-08T10:44:16.025Z,99535.50
2022-11-08T10:45:18.122Z,99533.47
2022-11-08T10:46:39.993Z,99559.81
2022-11-08T10:47:47.193Z,99554.31
2022-11-08T10:48:48.832Z,99564.94
2022-11-08T10:49:57.300Z,99544.88
2022-11-08T10:51:05.642Z,99534.47
2022-11-08T10:52:34.541Z,99524.78
2022-11-08T10:53:44.507Z,99529.66
2022-11-08T10:54:49.469Z,99535.41
2022-11-08T10:55:58.256Z,99548.69
2022-11-08T10:57:01.009Z,99545.97
2022-11-08T10:58:24.033Z,99552.19
2022-11-08T10:59:32.759Z,99540.00
2022-11-08T11:00:34.800Z,99542.94
2022-11-08T11:01:42.411Z,99528.78
2022-11-08T11:02:53.020Z,99536.56
2022-11-08T11:03:56.033Z,99506.00
2022-11-08T11:05:18.225Z,99542.31
2022-11-08T11:06:32.639Z,99542.06
2022-11-08T11:07:36.734Z,99537.38
2022-11-08T11:08:54.952Z,99530.41
2022-11-08T11:09:56.972Z,99535.66
2022-11-08T11:11:24.552Z,99535.28
2022-11-08T11:12:26.153Z,99525.81
2022-11-08T11:13:29.786Z,99547.81
2022-11-08T11:14:32.637Z,99509.00
2022-11-08T11:15:40.687Z,99529.47
2022-11-08T11:17:04.314Z,99526.06
2022-11-08T11:18:30.021Z,99509.00
2022-11-08T11:19:33.301Z,99532.09
2022-11-08T11:20:35.655Z,99528.44
2022-11-08T11:21:43.341Z,99520.09
2022-11-08T11:22:46.505Z,99527.69
2022-11-08T11:23:48.447Z,99528.28
2022-11-08T11:24:52.981Z,99538.56
2022-11-08T11:25:55.296Z,99525.56
2022-11-08T11:26:57.195Z,99529.00
2022-11-08T11:28:00.556Z,99526.22
2022-11-08T11:29:06.913Z,99533.53
2022-11-08T11:30:27.283Z,99523.13
2022-11-08T11:31:31.063Z,99513.66
2022-11-08T11:32:35.129Z,99482.72
2022-11-08T11:33:45.490Z,99517.19
2022-11-08T11:34:54.551Z,99495.09
2022-11-08T11:36:12.272Z,99517.50
2022-11-08T11:37:23.709Z,99513.78
2022-11-08T11:38:34.144Z,99505.00
2022-11-08T11:40:03.498Z,99514.69
2022-11-08T11:41:15.059Z,99514.28
2022-11-08T11:42:44.659Z,99517.00
2022-11-08T11:44:02.615Z,99479.25
2022-11-08T11:45:10.876Z,99503.84
2022-11-08T11:46:30.713Z,99502.25
2022-11-08T11:47:41.242Z,99491.06
2022-11-08T11:48:49.217Z,99487.47
2022-11-08T11:49:54.940Z,99485.00
2022-11-08T11:50:57.988Z,99493.53
2022-11-08T11:52:01.064Z,99471.28
2022-11-08T11:53:06.798Z,99451.78
2022-11-08T11:54:16.998Z,99476.94
2022-11-08T11:55:18.956Z,99470.13
2022-11-08T11:56:45.787Z,99483.19
2022-11-08T11:57:47.470Z,99497.44
2022-11-08T11:58:59.057Z,99488.78
2022-11-08T12:00:11.964Z,99499.66
2022-11-08T12:01:33.099Z,99487.94
2022-11-08T12:03:16.002Z,99498.84
2022-11-08T12:04:17.742Z,99488.31
2022-11-08T12:05:44.193Z,99485.25
2022-11-08T12:07:14.161Z,99433.03
2022-11-08T12:08:33.780Z,99495.28
2022-11-08T12:10:20.963Z,99491.34
2022-11-08T12:11:47.046Z,99484.94
2022-11-08T12:13:20.459Z,99489.19
2022-11-08T12:14:41.463Z,99489.31
2022-11-08T12:15:46.215Z,99481.00
2022-11-08T12:17:23.703Z,99479.78
2022-11-08T12:18:43.264Z,99475.56
2022-11-08T12:20:10.832Z,99477.16
2022-11-08T12:21:15.078Z,99485.38
2022-11-08T12:22:27.380Z,99476.34
2022-11-08T12:23:51.225Z,99478.06
2022-11-08T12:25:23.490Z,99474.22
2022-11-08T12:27:03.133Z,99472.31
2022-11-08T12:28:25.585Z,99483.53
2022-11-08T12:29:39.742Z,99481.59
2022-11-08T12:30:51.783Z,99466.06
2022-11-08T12:32:21.282Z,99480.56
2022-11-08T12:33:58.016Z,99476.88
2022-11-08T12:35:25.997Z,99476.25
2022-11-08T12:36:46.509Z,99438.41
2022-11-08T12:37:50.891Z,99473.69
2022-11-08T12:39:12.649Z,99449.22
2022-11-08T12:40:20.344Z,99468.00
2022-11-08T12:41:54.034Z,99470.72
2022-11-08T12:43:23.015Z,99471.94
2022-11-08T12:44:47.900Z,99484.19
2022-11-08T12:46:01.282Z,99471.91
2022-11-08T12:47:18.184Z,99462.03
2022-11-08T12:48:47.451Z,99462.56
2022-11-08T12:50:25.299Z,99463.38
2022-11-08T12:51:42.136Z,99466.75
2022-11-08T12:53:13.715Z,99456.47
2022-11-08T12:54:21.361Z,99459.50
2022-11-08T12:55:29.160Z,99459.56
2022-11-08T12:56:39.422Z,99414.22
2022-11-08T12:57:43.198Z,99471.13
2022-11-08T12:58:55.330Z,99457.00
2022-11-08T13:00:18.170Z,99442.31